aviador You're here:

KQDG Decoded Metar

ADANA/INCIRLIK in USA-MIL
Report Time2017-10-23 23:56:00
UTC Time2017-10-24 00:17:20
Flight Rules vfr VFR
Wind240° at 06 kt
W.Rank240° ranks 17
Current wind is below 240° avg. (6.4)
Visibility9999 m
Phenomena:N/A
Clouds:N/A
Expected CloudBase > 2,400 ft AGL from Temp-Dew spread
CeilingNone
Temp13°C (ISA -2)
Dew Point07°C (67% RH)
AAT10.1°C
QNH1023 hPa
Density Alt-141 ft
Elevation240 ft
Report Wrong Elevation
Raw Report
METAR KQDG 232356Z AUTO 24006KT 9999 CLR 13/07 A3020 RMK AO2 SLP229
T01250065 10125 20062 51015 PWINO $=

Extra information for KQDG:More info

Metar Taf Metar & Taf Last 4 Metars F.Rules Stats Wind Profile Meteogram Temp Stats Airport Information Weather charts Add Link Nearby VenuesMetar ALERT Operation Metar Decoded Social comments